createdAt,value
2023-03-12T00:03:27.432Z,89.8
2023-03-12T00:09:38.110Z,90.7
2023-03-12T00:14:34.643Z,91.5
2023-03-12T00:19:31.123Z,91.6
2023-03-12T00:24:27.774Z,91.5
2023-03-12T00:29:24.306Z,92
2023-03-12T00:35:34.922Z,91.3
2023-03-12T00:40:31.409Z,91.1
2023-03-12T00:45:27.984Z,91.5
2023-03-12T00:50:24.463Z,91.4
2023-03-12T00:56:35.177Z,90.5
2023-03-12T01:01:31.658Z,92
2023-03-12T01:06:28.207Z,91.7
2023-03-12T01:12:38.892Z,93.8
2023-03-12T01:17:35.591Z,95
2023-03-12T01:22:31.914Z,95.3
2023-03-12T01:27:28.493Z,92.7
2023-03-12T01:32:25.058Z,93
2023-03-12T01:38:35.688Z,92.8
2023-03-12T01:43:32.210Z,93.6
2023-03-12T01:48:28.817Z,92.3
2023-03-12T01:59:35.920Z,93.1
2023-03-12T02:04:32.492Z,93.1
2023-03-12T02:09:29.044Z,93.6
2023-03-12T02:14:25.583Z,94.3
2023-03-12T02:20:36.156Z,96.2
2023-03-12T02:25:32.715Z,95.4
2023-03-12T02:30:29.262Z,93.9
2023-03-12T02:35:25.823Z,93.3
2023-03-12T02:41:36.401Z,93.7
2023-03-12T02:46:32.948Z,93.2
2023-03-12T02:51:29.504Z,92.2
2023-03-12T02:56:26.083Z,91.4
2023-03-12T03:02:36.681Z,90.3
2023-03-12T03:12:29.745Z,91.4
2023-03-12T03:23:37.053Z,93.7
2023-03-12T03:27:27.586Z,91
2023-03-12T03:33:38.202Z,89.9
2023-03-12T03:38:34.830Z,90.3
2023-03-12T03:43:31.261Z,87.7
2023-03-12T03:48:27.797Z,88.3
2023-03-12T03:54:38.467Z,87.1
2023-03-12T03:59:35.080Z,87.9
2023-03-12T04:04:31.536Z,87.2
2023-03-12T04:09:28.168Z,88.4
2023-03-12T04:15:38.806Z,86.5
2023-03-12T04:20:35.374Z,87.6
2023-03-12T04:25:31.792Z,85.7
2023-03-12T04:30:28.424Z,86
2023-03-12T04:35:24.941Z,86.7
2023-03-12T04:41:35.779Z,86.1
2023-03-12T04:51:28.658Z,86.2
2023-03-12T04:56:25.604Z,84.3
2023-03-12T05:02:35.878Z,86.4
2023-03-12T05:07:32.354Z,89
2023-03-12T05:12:28.879Z,96.4
2023-03-12T05:17:25.425Z,100
2023-03-12T05:23:36.015Z,100
2023-03-12T05:28:32.733Z,100
2023-03-12T05:33:29.238Z,100
2023-03-12T05:38:25.671Z,100
2023-03-12T05:44:36.320Z,100
2023-03-12T05:49:32.818Z,100
2023-03-12T05:54:29.449Z,100
2023-03-12T05:59:25.905Z,100
2023-03-12T06:05:36.526Z,100
2023-03-12T06:10:33.152Z,100
2023-03-12T06:15:29.668Z,100
2023-03-12T06:20:26.231Z,100
2023-03-12T06:26:36.817Z,100
2023-03-12T06:31:33.465Z,100
2023-03-12T06:36:29.897Z,100
2023-03-12T06:41:26.415Z,100
2023-03-12T06:47:37.066Z,100
2023-03-12T06:52:33.621Z,100
2023-03-12T06:57:30.133Z,100
2023-03-12T07:02:26.787Z,100
2023-03-12T07:08:37.365Z,100
2023-03-12T07:13:33.895Z,100
2023-03-12T07:18:30.386Z,100
2023-03-12T07:23:27.005Z,100
2023-03-12T07:29:37.624Z,100
2023-03-12T07:34:34.305Z,100
2023-03-12T07:39:30.662Z,100
2023-03-12T07:44:27.266Z,100
2023-03-12T07:50:37.836Z,100
2023-03-12T07:55:34.543Z,100
2023-03-12T08:00:31.115Z,100
2023-03-12T08:05:27.526Z,100
2023-03-12T08:11:38.125Z,100
2023-03-12T08:16:35.095Z,100
2023-03-12T08:21:31.141Z,100
2023-03-12T08:26:27.701Z,100
2023-03-12T08:32:38.524Z,100
2023-03-12T08:37:35.026Z,100
2023-03-12T08:42:31.430Z,100
2023-03-12T08:47:27.953Z,100
2023-03-12T08:52:24.497Z,100
2023-03-12T08:58:35.274Z,100
2023-03-12T09:03:31.865Z,100
2023-03-12T09:08:28.235Z,100
2023-03-12T09:13:27.290Z,100
2023-03-12T09:19:35.569Z,100
2023-03-12T09:29:28.811Z,100
2023-03-12T09:34:25.067Z,100
2023-03-12T09:40:35.871Z,100
2023-03-12T09:45:32.352Z,100
2023-03-12T09:50:28.766Z,100
2023-03-12T10:01:36.062Z,100
2023-03-12T10:06:32.449Z,100
2023-03-12T10:11:29.104Z,100
2023-03-12T10:16:25.529Z,100
2023-03-12T10:22:36.244Z,100
2023-03-12T10:27:32.782Z,100
2023-03-12T10:32:29.262Z,100
2023-03-12T10:37:25.881Z,100
2023-03-12T10:43:36.434Z,100
2023-03-12T10:48:33.004Z,100
2023-03-12T10:53:30.041Z,100
2023-03-12T10:58:26.109Z,100
2023-03-12T11:04:36.709Z,100
2023-03-12T11:09:33.655Z,100
2023-03-12T11:13:15.680Z,100
2023-03-12T11:14:29.784Z,100
2023-03-12T11:19:26.335Z,100
2023-03-12T11:25:36.952Z,100
2023-03-12T11:30:33.658Z,100
2023-03-12T11:35:30.057Z,100
2023-03-12T11:40:26.563Z,100
2023-03-12T11:46:37.325Z,100
2023-03-12T11:51:33.753Z,100
2023-03-12T11:56:30.341Z,100
2023-03-12T12:01:26.821Z,100
2023-03-12T12:07:37.492Z,100
2023-03-12T12:12:34.078Z,100
2023-03-12T12:17:30.548Z,100
2023-03-12T12:22:27.091Z,100
2023-03-12T12:28:37.752Z,100
2023-03-12T12:33:34.298Z,100
2023-03-12T12:38:30.804Z,100
2023-03-12T12:43:27.367Z,100
2023-03-12T12:49:38.237Z,100
2023-03-12T12:54:34.639Z,100
2023-03-12T12:59:31.062Z,100
2023-03-12T13:04:27.714Z,100
2023-03-12T13:10:41.855Z,100
2023-03-12T13:15:34.959Z,100
2023-03-12T13:20:31.433Z,100
2023-03-12T13:25:27.999Z,100
2023-03-12T13:30:24.589Z,100
2023-03-12T13:36:35.137Z,100
2023-03-12T13:41:31.956Z,100
2023-03-12T13:46:28.344Z,100
2023-03-12T13:51:24.699Z,100
2023-03-12T13:57:37.776Z,100
2023-03-12T14:02:31.914Z,100
2023-03-12T14:07:28.513Z,100
2023-03-12T14:12:24.996Z,100
2023-03-12T14:18:35.765Z,100
2023-03-12T14:23:32.137Z,100
2023-03-12T14:28:28.748Z,100
2023-03-12T14:39:36.020Z,100
2023-03-12T14:44:32.403Z,100
2023-03-12T14:49:29.111Z,100
2023-03-12T14:54:25.620Z,100
2023-03-12T15:00:36.202Z,100
2023-03-12T15:05:32.660Z,100
2023-03-12T15:10:29.220Z,100
2023-03-12T15:15:25.897Z,100
2023-03-12T15:21:36.440Z,100
2023-03-12T15:26:33.100Z,100
2023-03-12T15:31:29.625Z,100
2023-03-12T15:36:26.097Z,100
2023-03-12T15:42:36.672Z,100
2023-03-12T15:47:33.206Z,100
2023-03-12T15:52:29.754Z,100
2023-03-12T16:03:36.925Z,100
2023-03-12T16:08:33.453Z,100
2023-03-12T16:13:29.987Z,100
2023-03-12T16:18:26.599Z,100
2023-03-12T16:24:37.177Z,100
2023-03-12T16:29:33.720Z,100
2023-03-12T16:34:30.226Z,100
2023-03-12T16:39:26.813Z,100
2023-03-12T16:45:37.475Z,100
2023-03-12T16:50:38.993Z,100
2023-03-12T16:55:30.474Z,100
2023-03-12T17:00:27.066Z,100
2023-03-12T17:06:37.695Z,100
2023-03-12T17:11:34.233Z,100
2023-03-12T17:16:30.902Z,100
2023-03-12T17:21:27.307Z,100
2023-03-12T17:26:23.861Z,100
2023-03-12T17:32:34.605Z,100
2023-03-12T17:37:31.014Z,100
2023-03-12T17:42:27.616Z,100
2023-03-12T17:48:38.223Z,100
2023-03-12T17:53:34.801Z,100
2023-03-12T17:58:31.260Z,100
2023-03-12T18:03:27.995Z,100
2023-03-12T18:08:24.537Z,100
2023-03-12T18:14:35.137Z,100
2023-03-12T18:19:31.889Z,100
2023-03-12T18:24:28.127Z,100
2023-03-12T18:29:24.685Z,100
2023-03-12T18:35:35.432Z,100
2023-03-12T18:40:31.823Z,100
2023-03-12T18:45:28.394Z,100
2023-03-12T18:50:24.913Z,100
2023-03-12T18:56:35.611Z,100
2023-03-12T19:01:32.138Z,100
2023-03-12T19:06:33.096Z,100
2023-03-12T19:11:25.171Z,100
2023-03-12T19:17:36.002Z,100
2023-03-12T19:22:32.349Z,100
2023-03-12T19:27:29.706Z,100
2023-03-12T19:32:33.240Z,100
2023-03-12T19:38:36.155Z,100
2023-03-12T19:43:32.591Z,100
2023-03-12T19:48:29.181Z,100
2023-03-12T19:53:25.744Z,100
2023-03-12T19:59:36.436Z,100
2023-03-12T20:04:32.875Z,99.4
2023-03-12T20:09:29.393Z,98.1
2023-03-12T20:14:25.937Z,98.8
2023-03-12T20:20:36.617Z,100
2023-03-12T20:25:33.107Z,100
2023-03-12T20:30:29.650Z,100
2023-03-12T20:41:36.824Z,100
2023-03-12T20:46:33.794Z,100
2023-03-12T20:51:29.915Z,100
2023-03-12T20:56:26.505Z,100
2023-03-12T21:02:37.198Z,100
2023-03-12T21:07:33.732Z,100
2023-03-12T21:12:30.182Z,100
2023-03-12T21:17:26.795Z,100
2023-03-12T21:23:37.457Z,100
2023-03-12T21:28:34.042Z,100
2023-03-12T21:33:30.482Z,100
2023-03-12T21:38:26.976Z,100
2023-03-12T21:43:23.582Z,100
2023-03-12T21:49:34.281Z,100
2023-03-12T21:54:30.676Z,100
2023-03-12T21:59:27.251Z,100
2023-03-12T22:05:37.896Z,100
2023-03-12T22:10:34.484Z,100
2023-03-12T22:15:30.939Z,100
2023-03-12T22:20:27.605Z,100
2023-03-12T22:26:38.178Z,100
2023-03-12T22:31:34.828Z,100
2023-03-12T22:36:31.241Z,100
2023-03-12T22:41:27.777Z,100
2023-03-12T22:47:38.409Z,100
2023-03-12T22:52:34.983Z,100
2023-03-12T22:57:31.450Z,100
2023-03-12T23:02:28.060Z,100
2023-03-12T23:08:38.755Z,100
2023-03-12T23:13:35.209Z,100
2023-03-12T23:18:31.725Z,100
2023-03-12T23:23:28.305Z,100
2023-03-12T23:28:24.848Z,100
2023-03-12T23:34:35.636Z,100
2023-03-12T23:44:28.537Z,100
2023-03-12T23:49:25.081Z,100
2023-03-12T23:55:35.769Z,100
